createdAt,value
2018-12-24T00:00:08.179Z,12.30
2018-12-24T00:02:36.822Z,12.20
2018-12-24T00:05:05.484Z,12.00
2018-12-24T00:07:34.234Z,11.90
2018-12-24T00:10:02.734Z,11.80
2018-12-24T00:12:31.521Z,11.70
2018-12-24T00:15:00.546Z,11.60
2018-12-24T00:17:29.284Z,11.50
2018-12-24T00:19:57.838Z,11.50
2018-12-24T00:22:26.354Z,11.40
2018-12-24T00:24:54.854Z,11.40
2018-12-24T00:27:23.681Z,11.30
2018-12-24T00:29:52.329Z,11.20
2018-12-24T00:32:20.903Z,11.20
2018-12-24T00:34:49.678Z,11.10
2018-12-24T00:37:18.186Z,11.00
2018-12-24T00:39:46.942Z,11.00
2018-12-24T00:42:16.161Z,11.00
2018-12-24T00:44:44.752Z,11.00
2018-12-24T00:47:13.265Z,11.00
2018-12-24T00:49:42.056Z,10.90
2018-12-24T00:52:10.550Z,10.90
2018-12-24T00:54:39.326Z,10.90
2018-12-24T00:57:07.858Z,10.80
2018-12-24T00:59:36.624Z,10.70
2018-12-24T01:02:05.156Z,10.60
2018-12-24T01:04:33.705Z,10.50
2018-12-24T01:07:02.606Z,10.30
2018-12-24T01:09:31.362Z,10.30
2018-12-24T01:12:00.149Z,10.20
2018-12-24T01:14:28.656Z,10.20
2018-12-24T01:16:57.192Z,10.10
2018-12-24T01:19:25.986Z,10.00
2018-12-24T01:21:55.735Z,9.80
2018-12-24T01:24:24.498Z,9.70
2018-12-24T01:26:53.102Z,9.60
2018-12-24T01:29:21.588Z,9.50
2018-12-24T01:31:50.422Z,9.40
2018-12-24T01:34:19.216Z,9.40
2018-12-24T01:36:47.740Z,9.20
2018-12-24T01:39:16.805Z,9.20
2018-12-24T01:41:45.341Z,9.20
2018-12-24T01:44:14.086Z,9.10
2018-12-24T01:46:42.582Z,9.10
2018-12-24T01:49:11.545Z,9.10
2018-12-24T01:51:40.070Z,9.10
2018-12-24T01:54:08.777Z,9.10
2018-12-24T01:56:37.326Z,9.20
2018-12-24T01:59:06.085Z,9.10
2018-12-24T02:01:34.846Z,9.10
2018-12-24T02:04:03.446Z,9.00
2018-12-24T02:06:32.179Z,8.90
2018-12-24T02:09:00.920Z,8.90
2018-12-24T02:11:29.455Z,8.80
2018-12-24T02:13:57.958Z,8.70
2018-12-24T02:16:26.686Z,8.70
2018-12-24T02:18:55.440Z,8.70
2018-12-24T02:21:23.940Z,8.70
2018-12-24T02:23:52.456Z,8.70
2018-12-24T02:26:21.198Z,8.70
2018-12-24T02:28:49.703Z,8.60
2018-12-24T02:31:18.442Z,8.60
2018-12-24T02:33:47.217Z,8.50
2018-12-24T02:36:15.724Z,8.50
2018-12-24T02:38:44.474Z,8.40
2018-12-24T02:41:13.032Z,8.40
2018-12-24T02:43:41.513Z,8.40
2018-12-24T02:46:10.012Z,8.40
2018-12-24T02:48:38.541Z,8.40
2018-12-24T02:51:07.270Z,8.30
2018-12-24T02:53:35.765Z,8.30
2018-12-24T02:56:04.534Z,8.20
2018-12-24T02:58:33.025Z,8.30
2018-12-24T03:01:01.510Z,8.30
2018-12-24T03:03:30.263Z,8.20
2018-12-24T03:05:58.980Z,8.20
2018-12-24T03:08:27.639Z,8.10
2018-12-24T03:10:57.228Z,8.20
2018-12-24T03:13:25.723Z,8.20
2018-12-24T03:15:54.489Z,8.10
2018-12-24T03:18:22.995Z,8.10
2018-12-24T03:20:51.494Z,8.10
2018-12-24T03:23:20.001Z,8.00
2018-12-24T03:25:48.779Z,8.00
2018-12-24T03:28:17.258Z,8.00
2018-12-24T03:30:45.751Z,8.00
2018-12-24T03:33:14.305Z,8.00
2018-12-24T03:35:42.847Z,8.00
2018-12-24T03:38:11.391Z,8.00
2018-12-24T03:40:39.939Z,8.10
2018-12-24T03:43:12.796Z,8.10
2018-12-24T03:45:38.940Z,8.20
2018-12-24T03:48:08.618Z,8.20
2018-12-24T03:50:37.375Z,8.20
2018-12-24T03:53:05.885Z,8.10
2018-12-24T03:55:34.650Z,8.10
2018-12-24T03:58:03.145Z,8.20
2018-12-24T04:00:31.643Z,8.10
2018-12-24T04:03:00.222Z,8.00
2018-12-24T04:05:29.022Z,8.00
2018-12-24T04:07:57.500Z,8.00
2018-12-24T04:10:26.021Z,8.00
2018-12-24T04:12:54.523Z,8.00
2018-12-24T04:15:23.021Z,7.80
2018-12-24T04:17:51.552Z,7.90
2018-12-24T04:20:20.054Z,7.90
2018-12-24T04:22:48.797Z,7.90
2018-12-24T04:25:17.325Z,8.00
2018-12-24T04:27:45.818Z,7.90
2018-12-24T04:30:14.318Z,7.90
2018-12-24T04:32:43.089Z,7.90
2018-12-24T04:35:11.583Z,7.90
2018-12-24T04:37:40.094Z,7.90
2018-12-24T04:40:08.648Z,7.80
2018-12-24T04:42:37.412Z,7.90
2018-12-24T04:45:05.975Z,7.80
2018-12-24T04:47:34.770Z,7.70
2018-12-24T04:50:03.516Z,7.70
2018-12-24T04:52:32.108Z,7.70
2018-12-24T04:55:00.696Z,7.70
2018-12-24T04:57:29.184Z,7.80
2018-12-24T04:59:57.911Z,7.80
2018-12-24T05:02:26.714Z,7.80
2018-12-24T05:04:55.446Z,7.80
2018-12-24T05:07:24.177Z,7.80
2018-12-24T05:09:53.011Z,7.80
2018-12-24T05:12:21.509Z,7.70
2018-12-24T05:14:50.239Z,7.80
2018-12-24T05:17:19.039Z,7.80
2018-12-24T05:19:47.766Z,7.80
2018-12-24T05:22:16.502Z,7.90
2018-12-24T05:24:45.277Z,7.90
2018-12-24T05:27:14.138Z,7.90
2018-12-24T05:29:42.886Z,7.90
2018-12-24T05:32:11.422Z,7.90
2018-12-24T05:34:39.903Z,7.90
2018-12-24T05:37:08.412Z,7.90
2018-12-24T05:39:37.177Z,7.80
2018-12-24T05:42:05.675Z,7.80
2018-12-24T05:44:34.179Z,7.80
2018-12-24T05:47:02.874Z,7.80
2018-12-24T05:49:31.363Z,7.80
2018-12-24T05:52:00.089Z,7.70
2018-12-24T05:54:28.615Z,7.70
2018-12-24T05:56:57.114Z,7.60
2018-12-24T05:59:25.858Z,7.60
2018-12-24T06:01:54.369Z,7.60
2018-12-24T06:04:22.854Z,7.60
2018-12-24T06:06:51.603Z,7.60
2018-12-24T06:09:20.413Z,7.70
2018-12-24T06:11:49.182Z,7.70
2018-12-24T06:14:17.917Z,7.70
2018-12-24T06:16:46.699Z,7.70
2018-12-24T06:19:15.448Z,7.60
2018-12-24T06:21:44.162Z,7.50
2018-12-24T06:24:12.680Z,7.60
2018-12-24T06:26:41.425Z,7.50
2018-12-24T06:29:09.913Z,7.50
2018-12-24T06:31:38.662Z,7.50
2018-12-24T06:34:07.178Z,7.50
2018-12-24T06:36:35.670Z,7.40
2018-12-24T06:39:06.655Z,7.40
2018-12-24T06:41:35.145Z,7.30
2018-12-24T06:44:06.782Z,7.40
2018-12-24T06:46:33.962Z,7.40
2018-12-24T06:49:02.469Z,7.40
2018-12-24T06:51:33.098Z,7.40
2018-12-24T06:54:01.799Z,7.40
2018-12-24T06:56:30.305Z,7.40
2018-12-24T06:58:59.148Z,7.40
2018-12-24T07:01:27.933Z,7.50
2018-12-24T07:03:56.418Z,7.50
2018-12-24T07:06:25.173Z,7.40
2018-12-24T07:08:53.691Z,7.40
2018-12-24T07:11:22.182Z,7.40
2018-12-24T07:13:50.906Z,7.40
2018-12-24T07:16:19.413Z,7.40
2018-12-24T07:18:48.164Z,7.40
2018-12-24T07:21:16.658Z,7.40
2018-12-24T07:23:45.428Z,7.40
2018-12-24T07:26:13.925Z,7.40
2018-12-24T07:28:42.417Z,7.50
2018-12-24T07:31:10.958Z,7.50
2018-12-24T07:33:39.466Z,7.60
2018-12-24T07:36:07.940Z,7.60
2018-12-24T07:38:36.705Z,7.60
2018-12-24T07:41:05.187Z,7.50
2018-12-24T07:43:33.678Z,7.60
2018-12-24T07:46:02.475Z,7.50
2018-12-24T07:48:31.194Z,7.50
2018-12-24T07:50:59.677Z,7.50
2018-12-24T07:53:28.199Z,7.60
2018-12-24T07:55:56.692Z,7.70
2018-12-24T07:58:25.428Z,7.70
2018-12-24T08:00:54.332Z,7.70
2018-12-24T08:03:22.989Z,7.70
2018-12-24T08:05:51.731Z,7.70
2018-12-24T08:08:20.257Z,7.80
2018-12-24T08:10:48.995Z,7.80
2018-12-24T08:13:17.482Z,7.80
2018-12-24T08:15:46.240Z,7.70
2018-12-24T08:18:14.975Z,7.70
2018-12-24T08:20:43.701Z,7.70
2018-12-24T08:23:12.466Z,7.60
2018-12-24T08:25:41.223Z,7.60
2018-12-24T08:28:09.761Z,7.70
2018-12-24T08:30:38.306Z,7.70
2018-12-24T08:33:07.174Z,7.70
2018-12-24T08:35:36.882Z,7.80
2018-12-24T08:38:05.757Z,7.80
2018-12-24T08:40:34.648Z,7.90
2018-12-24T08:43:03.167Z,7.80
2018-12-24T08:45:31.699Z,7.70
2018-12-24T08:48:00.433Z,7.70
2018-12-24T08:50:29.159Z,7.70
2018-12-24T08:52:57.950Z,7.60
2018-12-24T08:55:26.429Z,7.50
2018-12-24T08:57:54.922Z,7.50
2018-12-24T09:00:23.683Z,7.50
2018-12-24T09:02:52.178Z,7.60
2018-12-24T09:05:20.678Z,7.60
2018-12-24T09:07:49.214Z,7.70
2018-12-24T09:10:18.473Z,7.70
2018-12-24T09:12:47.206Z,7.70
2018-12-24T09:15:15.919Z,7.80
2018-12-24T09:17:44.755Z,7.80
2018-12-24T09:20:13.489Z,7.90
2018-12-24T09:22:42.003Z,7.90
2018-12-24T09:25:10.613Z,8.00
2018-12-24T09:27:39.146Z,8.10
2018-12-24T09:30:10.292Z,8.20
2018-12-24T09:32:39.149Z,8.20
2018-12-24T09:35:07.645Z,8.30
2018-12-24T09:37:36.173Z,8.40
2018-12-24T09:40:07.749Z,8.30
2018-12-24T09:42:36.491Z,8.40
2018-12-24T09:45:05.651Z,8.40
2018-12-24T09:47:34.138Z,8.50
2018-12-24T09:50:02.641Z,8.50
2018-12-24T09:52:31.146Z,8.50
2018-12-24T09:54:59.634Z,8.40
2018-12-24T09:57:28.465Z,8.30
2018-12-24T09:59:56.991Z,8.20
2018-12-24T10:02:28.807Z,8.20
2018-12-24T10:04:57.289Z,8.20
2018-12-24T10:07:27.824Z,8.20
2018-12-24T10:09:56.313Z,8.20
2018-12-24T10:12:25.263Z,8.30
2018-12-24T10:14:55.040Z,8.30
2018-12-24T10:17:23.517Z,8.30
2018-12-24T10:19:52.218Z,8.40
2018-12-24T10:22:21.039Z,8.40
2018-12-24T10:24:49.529Z,8.50
2018-12-24T10:27:18.261Z,8.60
2018-12-24T10:29:47.031Z,8.70
2018-12-24T10:32:15.762Z,8.70
2018-12-24T10:34:44.253Z,8.70
2018-12-24T10:37:12.780Z,8.80
2018-12-24T10:39:41.307Z,8.70
2018-12-24T10:42:09.843Z,8.60
2018-12-24T10:44:38.395Z,8.60
2018-12-24T10:47:06.878Z,8.50
2018-12-24T10:49:35.464Z,8.50
2018-12-24T10:52:04.230Z,8.50
2018-12-24T10:54:33.057Z,8.50
2018-12-24T10:57:01.941Z,8.50
2018-12-24T10:59:30.458Z,8.50
2018-12-24T11:01:58.954Z,8.60
2018-12-24T11:04:27.452Z,8.60
2018-12-24T11:06:56.002Z,8.50
2018-12-24T11:09:24.475Z,8.60
2018-12-24T11:11:52.961Z,8.60
2018-12-24T11:14:21.514Z,8.50
2018-12-24T11:16:50.249Z,8.50
2018-12-24T11:19:18.975Z,8.50
2018-12-24T11:21:47.780Z,8.50
2018-12-24T11:24:16.507Z,8.50
2018-12-24T11:26:45.220Z,8.60
2018-12-24T11:29:13.986Z,8.70
2018-12-24T11:31:42.483Z,8.70
2018-12-24T11:34:10.998Z,8.70
2018-12-24T11:36:39.526Z,8.80
2018-12-24T11:39:08.288Z,8.80
2018-12-24T11:41:37.467Z,8.70
2018-12-24T11:44:06.206Z,8.70
2018-12-24T11:46:34.696Z,8.70
2018-12-24T11:49:03.193Z,8.70
2018-12-24T11:51:31.882Z,8.60
2018-12-24T11:54:00.613Z,8.60
2018-12-24T11:56:29.098Z,8.50
2018-12-24T11:58:57.635Z,8.40
2018-12-24T12:01:26.364Z,8.40
2018-12-24T12:03:54.855Z,8.40
2018-12-24T12:06:23.613Z,8.30
2018-12-24T12:08:52.351Z,8.20
2018-12-24T12:11:20.836Z,8.10
2018-12-24T12:13:49.629Z,8.10
2018-12-24T12:16:18.366Z,8.10
2018-12-24T12:18:47.382Z,8.10
2018-12-24T12:21:16.159Z,8.00
2018-12-24T12:23:45.334Z,8.00
2018-12-24T12:26:14.079Z,8.00
2018-12-24T12:28:42.831Z,7.90
2018-12-24T12:31:11.335Z,8.00
2018-12-24T12:33:39.823Z,8.00
2018-12-24T12:36:08.372Z,8.00
2018-12-24T12:38:36.886Z,8.00
2018-12-24T12:41:05.655Z,8.00
2018-12-24T12:43:34.260Z,8.00
2018-12-24T12:46:02.999Z,8.00
2018-12-24T12:48:31.508Z,8.10
2018-12-24T12:51:00.263Z,8.10
2018-12-24T12:53:29.009Z,8.20
2018-12-24T12:55:57.766Z,8.30
2018-12-24T12:58:26.426Z,8.40
2018-12-24T13:00:56.885Z,8.50
2018-12-24T13:03:25.401Z,8.60
2018-12-24T13:05:54.633Z,8.60
2018-12-24T13:08:23.290Z,8.60
2018-12-24T13:10:52.045Z,8.60
2018-12-24T13:13:20.594Z,8.70
2018-12-24T13:15:49.060Z,8.80
2018-12-24T13:18:17.584Z,8.80
2018-12-24T13:20:46.112Z,8.80
2018-12-24T13:23:14.871Z,8.90
2018-12-24T13:25:43.633Z,8.90
2018-12-24T13:28:12.435Z,8.90
2018-12-24T13:30:40.927Z,9.00
2018-12-24T13:33:09.522Z,8.90
2018-12-24T13:35:38.256Z,8.90
2018-12-24T13:38:06.835Z,8.90
2018-12-24T13:40:35.350Z,8.90
2018-12-24T13:43:04.477Z,8.90
2018-12-24T13:45:33.223Z,9.10
2018-12-24T13:48:01.719Z,9.10
2018-12-24T14:03:07.829Z,8.60
2018-12-24T14:11:51.389Z,8.70
2018-12-24T14:26:48.678Z,8.60
2018-12-24T15:25:53.005Z,7.80
2018-12-24T15:40:49.994Z,7.60
2018-12-24T16:05:12.548Z,7.10
2018-12-24T16:20:42.400Z,7.00
2018-12-24T16:39:17.230Z,7.00
2018-12-24T16:48:05.339Z,7.10
2018-12-24T16:57:07.676Z,6.80
2018-12-24T17:00:07.138Z,6.90
2018-12-24T17:05:56.000Z,6.70
2018-12-24T17:11:53.213Z,6.80
2018-12-24T17:14:33.744Z,6.70
2018-12-24T17:36:02.551Z,6.50
2018-12-24T17:39:02.532Z,6.50
2018-12-24T17:47:51.787Z,6.30
2018-12-24T17:53:33.688Z,6.20
2018-12-24T17:59:33.535Z,6.10
2018-12-24T18:02:14.284Z,6.00
2018-12-24T18:11:04.077Z,5.90
2018-12-24T18:22:56.901Z,5.90
2018-12-24T18:25:44.626Z,5.90
2018-12-24T18:31:06.910Z,5.80
2018-12-24T18:34:30.460Z,5.80
2018-12-24T18:37:18.187Z,5.80
2018-12-24T18:40:06.009Z,5.80
2018-12-24T18:42:53.743Z,5.70
2018-12-24T18:49:46.138Z,5.70
2018-12-24T18:56:00.062Z,5.60
2018-12-24T18:59:25.210Z,5.60
2018-12-24T19:05:58.534Z,5.50
2018-12-24T19:08:46.266Z,5.50
2018-12-24T19:11:34.037Z,5.40
2018-12-24T19:18:03.151Z,5.30
2018-12-24T19:21:26.886Z,5.20
2018-12-24T19:24:07.814Z,5.20
2018-12-24T19:26:48.846Z,5.20
2018-12-24T19:32:53.514Z,5.10
2018-12-24T19:39:13.198Z,5.00
2018-12-24T20:00:40.061Z,4.70
2018-12-24T20:21:23.945Z,4.50
2018-12-24T20:30:25.552Z,4.30
2018-12-24T20:36:26.324Z,4.30
2018-12-24T20:48:16.475Z,4.20
2018-12-24T20:54:33.520Z,4.20
2018-12-24T21:15:44.582Z,3.90
2018-12-24T21:22:33.360Z,3.90
2018-12-24T21:56:28.800Z,3.50
2018-12-24T21:58:57.206Z,3.50
2018-12-24T22:01:26.014Z,3.50
2018-12-24T22:03:54.614Z,3.50
2018-12-24T22:06:23.316Z,3.50
2018-12-24T22:08:51.762Z,3.40
2018-12-24T22:11:20.526Z,3.40
2018-12-24T22:13:48.929Z,3.40
2018-12-24T22:16:17.422Z,3.40
2018-12-24T22:18:46.286Z,3.40
2018-12-24T22:21:14.950Z,3.30
2018-12-24T22:23:43.345Z,3.30
2018-12-24T22:26:12.060Z,3.30
2018-12-24T22:28:40.507Z,3.30
2018-12-24T22:31:08.912Z,3.30
2018-12-24T22:33:37.329Z,3.30
2018-12-24T22:36:05.731Z,3.30
2018-12-24T22:38:34.751Z,3.20
2018-12-24T22:41:03.713Z,3.20
2018-12-24T22:43:32.380Z,3.20
2018-12-24T22:46:00.760Z,3.10
2018-12-24T22:48:31.177Z,3.10
2018-12-24T22:50:59.729Z,3.10
2018-12-24T22:53:28.350Z,3.10
2018-12-24T22:55:56.809Z,3.00
2018-12-24T22:58:25.267Z,3.00
2018-12-24T23:00:54.075Z,3.00
2018-12-24T23:03:22.952Z,3.00
2018-12-24T23:05:51.349Z,2.90
2018-12-24T23:08:19.742Z,2.90
2018-12-24T23:10:48.177Z,2.90
2018-12-24T23:13:16.826Z,2.90
2018-12-24T23:15:45.457Z,2.80
2018-12-24T23:18:13.892Z,2.80
2018-12-24T23:20:42.416Z,2.80
2018-12-24T23:23:10.797Z,2.80
2018-12-24T23:25:39.755Z,2.80
2018-12-24T23:28:08.406Z,2.90
2018-12-24T23:30:37.878Z,2.80
2018-12-24T23:33:06.318Z,2.80
2018-12-24T23:35:34.963Z,2.80
2018-12-24T23:38:03.606Z,2.80
2018-12-24T23:40:32.259Z,2.80
2018-12-24T23:43:00.665Z,2.80
2018-12-24T23:45:29.061Z,2.80
2018-12-24T23:47:58.046Z,2.80
2018-12-24T23:50:26.458Z,2.80
2018-12-24T23:52:55.101Z,2.70
2018-12-24T23:55:23.536Z,2.60
2018-12-24T23:57:52.173Z,2.60
